createdAt,value
2023-10-27T00:01:06.188Z,96569.47
2023-10-27T00:03:46.702Z,96568.33
2023-10-27T00:06:20.373Z,96560.80
2023-10-27T00:08:54.225Z,96556.22
2023-10-27T00:11:28.654Z,96552.55
2023-10-27T00:14:02.722Z,96554.23
2023-10-27T00:16:36.772Z,96554.92
2023-10-27T00:19:11.007Z,96557.66
2023-10-27T00:21:45.229Z,96554.62
2023-10-27T00:24:19.178Z,96552.95
2023-10-27T00:26:53.092Z,96552.37
2023-10-27T00:29:26.950Z,96546.21
2023-10-27T00:32:00.952Z,96541.08
2023-10-27T00:34:34.595Z,96538.59
2023-10-27T00:37:09.442Z,96534.87
2023-10-27T00:39:43.449Z,96536.86
2023-10-27T00:42:17.326Z,96545.51
2023-10-27T00:44:51.026Z,96551.41
2023-10-27T00:47:26.132Z,96553.45
2023-10-27T00:50:00.407Z,96557.05
2023-10-27T00:52:34.532Z,96551.46
2023-10-27T00:55:11.357Z,96554.98
2023-10-27T00:57:48.453Z,96552.86
2023-10-27T01:00:22.708Z,96554.73
2023-10-27T01:02:56.408Z,96553.59
2023-10-27T01:05:30.961Z,96555.08
2023-10-27T01:08:05.092Z,96559.30
2023-10-27T01:10:39.063Z,96559.14
2023-10-27T01:13:13.109Z,96557.81
2023-10-27T01:15:47.345Z,96552.23
2023-10-27T01:18:21.331Z,96556.98
2023-10-27T01:20:55.472Z,96562.39
2023-10-27T01:23:31.134Z,96564.40
2023-10-27T01:26:05.286Z,96569.98
2023-10-27T01:28:38.981Z,96576.66
2023-10-27T01:31:12.699Z,96577.38
2023-10-27T01:33:46.642Z,96580.83
2023-10-27T01:36:21.022Z,96583.45
2023-10-27T01:38:54.882Z,96588.02
2023-10-27T01:41:28.693Z,96586.08
2023-10-27T01:44:02.633Z,96585.20
2023-10-27T01:46:36.919Z,96582.52
2023-10-27T01:49:11.418Z,96576.74
2023-10-27T01:51:45.505Z,96576.29
2023-10-27T01:54:19.581Z,96582.80
2023-10-27T01:56:53.176Z,96585.18
2023-10-27T01:59:26.850Z,96584.27
2023-10-27T02:02:00.984Z,96578.77
2023-10-27T02:04:38.662Z,96581.05
2023-10-27T02:07:14.065Z,96580.46
2023-10-27T02:09:48.508Z,96580.41
2023-10-27T02:12:22.218Z,96574.74
2023-10-27T02:14:56.078Z,96574.33
2023-10-27T02:17:30.342Z,96573.36
2023-10-27T02:20:04.344Z,96574.55
2023-10-27T02:22:38.217Z,96570.81
2023-10-27T02:25:12.451Z,96571.86
2023-10-27T02:27:46.450Z,96574.86
2023-10-27T02:30:20.411Z,96569.52
2023-10-27T02:32:54.219Z,96565.75
2023-10-27T02:35:28.641Z,96562.82
2023-10-27T02:38:02.133Z,96564.83
2023-10-27T02:40:37.910Z,96562.70
2023-10-27T02:43:15.110Z,96566.39
2023-10-27T02:45:49.409Z,96570.82
2023-10-27T02:48:23.216Z,96568.41
2023-10-27T02:50:57.022Z,96567.95
2023-10-27T02:53:30.821Z,96569.91
2023-10-27T02:56:10.974Z,96571.84
2023-10-27T02:58:44.904Z,96575.12
2023-10-27T03:01:19.152Z,96577.66
2023-10-27T03:03:53.513Z,96574.96
2023-10-27T03:06:27.249Z,96572.13
2023-10-27T03:09:01.170Z,96570.05
2023-10-27T03:11:35.016Z,96568.09
2023-10-27T03:14:08.997Z,96561.61
2023-10-27T03:16:43.028Z,96559.00
2023-10-27T03:19:17.056Z,96558.27
2023-10-27T03:21:51.459Z,96557.84
2023-10-27T03:24:25.239Z,96560.08
2023-10-27T03:26:58.777Z,96553.91
2023-10-27T03:29:32.806Z,96554.02
2023-10-27T03:32:10.255Z,96555.77
2023-10-27T03:34:44.901Z,96559.60
2023-10-27T03:37:18.828Z,96562.59
2023-10-27T03:39:54.642Z,96567.02
2023-10-27T03:42:28.378Z,96575.56
2023-10-27T03:45:02.143Z,96579.03
2023-10-27T03:47:35.965Z,96573.44
2023-10-27T03:50:12.291Z,96574.48
2023-10-27T03:52:45.928Z,96581.80
2023-10-27T03:55:20.154Z,96584.06
2023-10-27T03:57:55.345Z,96588.27
2023-10-27T04:00:31.256Z,96595.33
2023-10-27T04:03:05.186Z,96599.77
2023-10-27T04:05:39.305Z,96598.81
2023-10-27T04:08:13.027Z,96597.52
2023-10-27T04:10:47.462Z,96599.11
2023-10-27T04:13:21.420Z,96598.52
2023-10-27T04:15:55.369Z,96600.34
2023-10-27T04:18:30.527Z,96601.05
2023-10-27T04:21:05.289Z,96606.42
2023-10-27T04:23:39.088Z,96607.89
2023-10-27T04:26:14.337Z,96607.98
2023-10-27T04:28:47.939Z,96610.49
2023-10-27T04:31:22.391Z,96609.09
2023-10-27T04:33:56.522Z,96607.52
2023-10-27T04:36:30.047Z,96609.92
2023-10-27T04:39:05.280Z,96606.13
2023-10-27T04:41:39.166Z,96602.76
2023-10-27T04:44:13.987Z,96606.09
2023-10-27T04:46:47.748Z,96606.80
2023-10-27T04:49:21.824Z,96613.66
2023-10-27T04:51:55.844Z,96614.89
2023-10-27T04:54:29.670Z,96623.79
2023-10-27T04:57:04.712Z,96627.65
2023-10-27T04:59:38.837Z,96624.54
2023-10-27T05:02:13.778Z,96621.35
2023-10-27T05:04:47.509Z,96622.56
2023-10-27T05:07:21.785Z,96623.61
2023-10-27T05:09:55.622Z,96621.15
2023-10-27T05:12:29.654Z,96616.88
2023-10-27T05:15:04.610Z,96616.29
2023-10-27T05:17:39.811Z,96617.20
2023-10-27T05:20:14.709Z,96616.03
2023-10-27T05:22:48.377Z,96609.39
2023-10-27T05:25:22.410Z,96612.53
2023-10-27T05:27:56.322Z,96613.58
2023-10-27T05:30:29.857Z,96611.96
2023-10-27T05:33:03.716Z,96602.42
2023-10-27T05:35:37.504Z,96594.80
2023-10-27T05:38:11.385Z,96588.10
2023-10-27T05:40:45.066Z,96591.13
2023-10-27T05:43:19.446Z,96587.30
2023-10-27T05:45:53.340Z,96581.98
2023-10-27T05:48:27.366Z,96583.11
2023-10-27T05:51:01.606Z,96582.39
2023-10-27T05:53:35.707Z,96580.13
2023-10-27T05:56:10.475Z,96578.41
2023-10-27T05:58:44.158Z,96580.03
2023-10-27T06:01:19.056Z,96576.98
2023-10-27T06:03:55.205Z,96574.80
2023-10-27T06:06:28.954Z,96573.30
2023-10-27T06:09:03.187Z,96566.14
2023-10-27T06:11:37.382Z,96565.27
2023-10-27T06:14:11.701Z,96569.77
2023-10-27T06:16:45.719Z,96568.30
2023-10-27T06:19:21.549Z,96572.03
2023-10-27T06:21:55.593Z,96565.80
2023-10-27T06:24:29.963Z,96560.64
2023-10-27T06:27:04.668Z,96562.58
2023-10-27T06:29:39.952Z,96561.02
2023-10-27T06:32:13.842Z,96563.38
2023-10-27T06:34:48.070Z,96560.64
2023-10-27T06:37:21.884Z,96567.07
2023-10-27T06:40:00.912Z,96568.40
2023-10-27T06:42:34.788Z,96572.04
2023-10-27T06:45:10.164Z,96570.02
2023-10-27T06:47:44.397Z,96563.02
2023-10-27T06:50:18.692Z,96559.99
2023-10-27T06:52:53.016Z,96554.30
2023-10-27T06:55:26.938Z,96550.30
2023-10-27T06:58:01.739Z,96544.59
2023-10-27T07:00:35.463Z,96544.62
2023-10-27T07:03:21.174Z,96537.04
2023-10-27T07:06:03.090Z,96533.44
2023-10-27T07:08:39.337Z,96530.84
2023-10-27T07:11:13.158Z,96527.89
2023-10-27T07:13:47.298Z,96524.77
2023-10-27T07:16:21.275Z,96521.84
2023-10-27T07:18:55.287Z,96517.81
2023-10-27T07:21:29.220Z,96520.91
2023-10-27T07:24:03.403Z,96518.23
2023-10-27T07:26:37.068Z,96511.41
2023-10-27T07:29:10.885Z,96505.13
2023-10-27T07:31:45.341Z,96508.17
2023-10-27T07:34:19.328Z,96504.45
2023-10-27T07:36:54.881Z,96505.54
2023-10-27T07:39:30.101Z,96494.73
2023-10-27T07:42:04.824Z,96483.94
2023-10-27T07:44:36.714Z,96485.23
2023-10-27T07:47:10.767Z,96476.28
2023-10-27T07:49:44.835Z,96474.70
2023-10-27T07:52:19.163Z,96472.67
2023-10-27T07:54:52.769Z,96473.14
2023-10-27T07:57:26.585Z,96471.86
2023-10-27T08:00:00.212Z,96462.06
2023-10-27T08:02:34.924Z,96455.96
2023-10-27T08:05:09.654Z,96456.15
2023-10-27T08:07:44.459Z,96460.20
2023-10-27T08:10:18.527Z,96458.45
2023-10-27T08:12:52.503Z,96448.94
2023-10-27T08:15:27.024Z,96446.12
2023-10-27T08:18:00.994Z,96447.61
2023-10-27T08:20:35.005Z,96443.40
2023-10-27T08:23:08.800Z,96436.15
2023-10-27T08:25:43.593Z,96431.69
2023-10-27T08:28:17.639Z,96436.32
2023-10-27T08:30:51.631Z,96433.55
2023-10-27T08:33:25.574Z,96429.14
2023-10-27T08:36:06.285Z,96426.64
2023-10-27T08:38:39.943Z,96422.71
2023-10-27T08:41:15.488Z,96417.17
2023-10-27T08:43:49.201Z,96412.83
2023-10-27T08:46:23.161Z,96410.86
2023-10-27T08:48:57.569Z,96408.64
2023-10-27T08:51:31.501Z,96408.23
2023-10-27T08:54:05.400Z,96410.74
2023-10-27T08:56:39.709Z,96410.27
2023-10-27T08:59:13.635Z,96402.20
2023-10-27T09:01:47.330Z,96398.63
2023-10-27T09:04:22.698Z,96397.95
2023-10-27T09:06:57.636Z,96394.96
2023-10-27T09:09:32.844Z,96393.48
2023-10-27T09:12:07.196Z,96389.70
2023-10-27T09:14:42.252Z,96387.70
2023-10-27T09:17:17.262Z,96381.67
2023-10-27T09:19:51.006Z,96382.02
2023-10-27T09:22:31.499Z,96381.47
2023-10-27T09:25:20.512Z,96380.83
2023-10-27T09:27:54.979Z,96380.06
2023-10-27T09:30:33.729Z,96377.19
2023-10-27T09:33:20.466Z,96375.02
2023-10-27T09:35:55.208Z,96373.91
2023-10-27T09:38:29.413Z,96368.45
2023-10-27T09:41:04.724Z,96369.02
2023-10-27T09:43:39.123Z,96366.23
2023-10-27T09:46:12.933Z,96359.92
2023-10-27T09:48:51.190Z,96361.92
2023-10-27T09:51:29.517Z,96363.12
2023-10-27T09:54:04.898Z,96359.25
2023-10-27T09:56:38.910Z,96358.67
2023-10-27T09:59:13.054Z,96359.48
2023-10-27T10:01:46.869Z,96356.21
2023-10-27T10:04:57.026Z,96352.56
2023-10-27T10:07:35.014Z,96344.67
2023-10-27T10:10:37.800Z,96339.71
2023-10-27T10:13:15.772Z,96334.45
2023-10-27T10:15:55.592Z,96334.73
2023-10-27T10:18:58.909Z,96335.77
2023-10-27T10:21:40.589Z,96332.46
2023-10-27T10:24:15.223Z,96329.22
2023-10-27T10:27:16.866Z,96330.91
2023-10-27T10:29:54.264Z,96332.70
2023-10-27T10:32:47.687Z,96329.52
2023-10-27T10:35:29.596Z,96321.20
2023-10-27T10:38:39.748Z,96321.65
2023-10-27T10:41:15.795Z,96321.34
2023-10-27T10:43:49.762Z,96321.52
2023-10-27T10:46:33.497Z,96317.03
2023-10-27T10:49:08.260Z,96317.17
2023-10-27T10:51:42.324Z,96313.37
2023-10-27T10:54:16.629Z,96314.88
2023-10-27T10:56:50.533Z,96313.17
2023-10-27T10:59:30.915Z,96311.58
2023-10-27T11:02:05.771Z,96306.86
2023-10-27T11:04:42.419Z,96306.96
2023-10-27T11:07:20.079Z,96305.95
2023-10-27T11:09:53.758Z,96310.06
2023-10-27T11:12:30.890Z,96313.35
2023-10-27T11:15:04.409Z,96311.92
2023-10-27T11:17:54.431Z,96313.91
2023-10-27T11:20:40.555Z,96312.70
2023-10-27T11:23:14.887Z,96313.58
2023-10-27T11:25:49.149Z,96311.70
2023-10-27T11:28:28.503Z,96302.99
2023-10-27T11:31:09.491Z,96311.90
2023-10-27T11:33:59.883Z,96317.33
2023-10-27T11:36:35.283Z,96318.15
2023-10-27T11:39:19.342Z,96321.31
2023-10-27T11:41:54.897Z,96324.38
2023-10-27T11:44:28.805Z,96326.35
2023-10-27T11:47:03.581Z,96322.24
2023-10-27T11:49:37.550Z,96325.86
2023-10-27T11:52:12.214Z,96327.10
2023-10-27T11:54:45.976Z,96339.11
2023-10-27T11:57:19.577Z,96341.70
2023-10-27T11:59:53.267Z,96341.77
2023-10-27T12:02:27.466Z,96339.98
2023-10-27T12:05:04.245Z,96341.08
2023-10-27T12:07:39.012Z,96335.66
2023-10-27T12:10:14.140Z,96338.61
2023-10-27T12:12:48.868Z,96337.52
2023-10-27T12:15:23.318Z,96338.88
2023-10-27T12:17:58.612Z,96347.12
2023-10-27T12:20:32.395Z,96344.68
2023-10-27T12:23:06.616Z,96366.58
2023-10-27T12:25:42.251Z,96356.78
2023-10-27T12:28:16.293Z,96360.63
2023-10-27T12:30:50.372Z,96361.39
2023-10-27T12:33:25.061Z,96355.92
2023-10-27T12:35:58.811Z,96355.79
2023-10-27T12:38:32.950Z,96349.57
2023-10-27T12:41:07.380Z,96345.79
2023-10-27T12:43:41.848Z,96347.85
2023-10-27T12:46:15.758Z,96346.02
2023-10-27T12:48:50.521Z,96345.34
2023-10-27T12:51:24.088Z,96342.62
2023-10-27T12:53:58.062Z,96337.17
2023-10-27T12:56:32.052Z,96341.74
2023-10-27T12:59:05.834Z,96340.55
2023-10-27T13:01:39.574Z,96340.16
2023-10-27T13:04:14.579Z,96339.27
2023-10-27T13:06:48.174Z,96340.44
2023-10-27T13:09:22.557Z,96344.83
2023-10-27T13:11:58.025Z,96342.30
2023-10-27T13:14:32.537Z,96347.48
2023-10-27T13:17:06.584Z,96349.08
2023-10-27T13:19:40.354Z,96345.30
2023-10-27T13:22:14.156Z,96346.70
2023-10-27T13:24:47.868Z,96339.88
2023-10-27T13:27:21.572Z,96346.50
2023-10-27T13:30:00.360Z,96347.03
2023-10-27T13:32:34.504Z,96349.75
2023-10-27T13:35:09.004Z,96353.95
2023-10-27T13:37:43.484Z,96353.66
2023-10-27T13:40:20.551Z,96355.27
2023-10-27T13:42:54.625Z,96352.70
2023-10-27T13:45:28.396Z,96355.71
2023-10-27T13:48:02.384Z,96352.89
2023-10-27T13:50:36.495Z,96357.16
2023-10-27T13:53:10.657Z,96355.77
2023-10-27T13:55:49.201Z,96359.55
2023-10-27T13:58:23.006Z,96356.64
2023-10-27T14:00:56.808Z,96359.30
2023-10-27T14:03:31.592Z,96361.83
2023-10-27T14:06:05.991Z,96368.33
2023-10-27T14:08:39.536Z,96369.48
2023-10-27T14:11:13.498Z,96371.28
2023-10-27T14:13:47.836Z,96374.00
2023-10-27T14:16:21.933Z,96380.02
2023-10-27T14:18:56.120Z,96381.98
2023-10-27T14:21:30.589Z,96388.21
2023-10-27T14:24:04.165Z,96392.04
2023-10-27T14:26:38.286Z,96390.48
2023-10-27T14:29:12.175Z,96394.96
2023-10-27T14:31:45.957Z,96401.27
2023-10-27T14:34:20.329Z,96402.13
2023-10-27T14:36:53.980Z,96402.66
2023-10-27T14:39:28.457Z,96407.34
2023-10-27T14:42:02.492Z,96411.34
2023-10-27T14:44:37.546Z,96414.23
2023-10-27T14:47:12.819Z,96419.94
2023-10-27T14:49:46.817Z,96422.19
2023-10-27T14:52:20.809Z,96422.48
2023-10-27T14:54:54.582Z,96422.58
2023-10-27T14:57:28.312Z,96424.65
2023-10-27T15:00:01.865Z,96426.77
2023-10-27T15:02:36.061Z,96428.05
2023-10-27T15:05:11.017Z,96426.81
2023-10-27T15:07:47.101Z,96427.92
2023-10-27T15:10:21.281Z,96431.38
2023-10-27T15:12:54.911Z,96434.98
2023-10-27T15:15:28.771Z,96438.39
2023-10-27T15:18:02.600Z,96440.30
2023-10-27T15:20:37.182Z,96443.92
2023-10-27T15:23:11.876Z,96444.92
2023-10-27T15:25:45.549Z,96444.83
2023-10-27T15:28:19.320Z,96445.96
2023-10-27T15:31:02.035Z,96448.48
2023-10-27T15:33:40.009Z,96447.56
2023-10-27T15:36:15.903Z,96446.30
2023-10-27T15:38:49.959Z,96447.42
2023-10-27T15:41:30.841Z,96453.42
2023-10-27T15:44:05.013Z,96457.92
2023-10-27T15:46:41.926Z,96462.48
2023-10-27T15:49:15.938Z,96464.04
2023-10-27T15:51:50.113Z,96465.40
2023-10-27T15:54:23.522Z,96460.95
2023-10-27T15:56:58.344Z,96462.70
2023-10-27T15:59:38.431Z,96464.98
2023-10-27T16:02:12.553Z,96467.00
2023-10-27T16:04:46.577Z,96470.98
2023-10-27T16:07:21.190Z,96473.21
2023-10-27T16:09:55.312Z,96474.39
2023-10-27T16:12:28.962Z,96478.36
2023-10-27T16:15:03.027Z,96478.42
2023-10-27T16:17:38.378Z,96467.95
2023-10-27T16:20:14.860Z,96474.15
2023-10-27T16:22:48.508Z,96473.45
2023-10-27T16:25:23.317Z,96474.36
2023-10-27T16:27:57.836Z,96472.30
2023-10-27T16:30:32.568Z,96473.23
2023-10-27T16:33:06.086Z,96474.41
2023-10-27T16:35:41.590Z,96467.46
2023-10-27T16:38:15.141Z,96465.30
2023-10-27T16:40:49.122Z,96456.00
2023-10-27T16:43:24.604Z,96450.77
2023-10-27T16:46:05.571Z,96447.32
2023-10-27T16:48:39.877Z,96446.08
2023-10-27T16:51:15.961Z,96442.85
2023-10-27T16:53:50.211Z,96439.81
2023-10-27T16:56:23.880Z,96442.34
2023-10-27T16:59:01.647Z,96437.47
2023-10-27T17:01:35.484Z,96442.31
2023-10-27T17:04:09.404Z,96445.02
2023-10-27T17:06:43.153Z,96454.98
2023-10-27T17:09:17.715Z,96453.25
2023-10-27T17:11:55.955Z,96451.09
2023-10-27T17:14:30.436Z,96456.61
2023-10-27T17:17:05.349Z,96453.48
2023-10-27T17:19:39.503Z,96452.35
2023-10-27T17:22:25.327Z,96449.48
2023-10-27T17:25:02.053Z,96450.03
2023-10-27T17:27:36.575Z,96441.34
2023-10-27T17:30:12.708Z,96437.55
2023-10-27T17:32:47.063Z,96435.88
2023-10-27T17:35:21.311Z,96435.91
2023-10-27T17:37:55.148Z,96435.39
2023-10-27T17:40:30.406Z,96436.91
2023-10-27T17:43:04.801Z,96432.21
2023-10-27T17:45:41.849Z,96435.98
2023-10-27T17:48:16.851Z,96435.42
2023-10-27T17:50:51.539Z,96438.52
2023-10-27T17:53:26.364Z,96441.57
2023-10-27T17:56:00.794Z,96442.35
2023-10-27T17:58:34.901Z,96449.23
2023-10-27T18:01:10.419Z,96455.73
2023-10-27T18:03:44.515Z,96460.79
2023-10-27T18:06:18.820Z,96461.93
2023-10-27T18:08:53.151Z,96469.86
2023-10-27T18:11:27.959Z,96476.45
2023-10-27T18:14:02.182Z,96480.48
2023-10-27T18:16:36.671Z,96486.41
2023-10-27T18:19:11.043Z,96481.50
2023-10-27T18:21:45.306Z,96474.58
2023-10-27T18:24:19.348Z,96471.92
2023-10-27T18:26:53.313Z,96465.68
2023-10-27T18:29:27.523Z,96459.56
2023-10-27T18:32:01.404Z,96462.59
2023-10-27T18:34:35.162Z,96467.31
2023-10-27T18:37:09.786Z,96471.98
2023-10-27T18:39:43.631Z,96473.80
2023-10-27T18:42:17.728Z,96476.98
2023-10-27T18:44:54.092Z,96481.34
2023-10-27T18:47:31.488Z,96482.81
2023-10-27T18:50:10.365Z,96482.55
2023-10-27T18:52:44.283Z,96480.92
2023-10-27T18:55:21.356Z,96480.80
2023-10-27T18:57:56.165Z,96477.44
2023-10-27T19:00:34.812Z,96478.67
2023-10-27T19:03:09.634Z,96478.84
2023-10-27T19:05:44.176Z,96478.39
2023-10-27T19:08:18.207Z,96480.36
2023-10-27T19:10:52.718Z,96479.12
2023-10-27T19:13:26.569Z,96475.73
2023-10-27T19:16:00.489Z,96477.50
2023-10-27T19:18:35.435Z,96474.39
2023-10-27T19:21:13.952Z,96474.83
2023-10-27T19:23:50.042Z,96471.60
2023-10-27T19:26:26.823Z,96473.17
2023-10-27T19:29:01.496Z,96477.14
2023-10-27T19:31:35.829Z,96479.50
2023-10-27T19:34:09.865Z,96475.15
2023-10-27T19:36:43.811Z,96474.57
2023-10-27T19:39:18.628Z,96470.48
2023-10-27T19:41:52.476Z,96467.00
2023-10-27T19:44:26.202Z,96468.36
2023-10-27T19:47:00.150Z,96472.64
2023-10-27T19:49:35.087Z,96467.14
2023-10-27T19:52:12.197Z,96468.61
2023-10-27T19:54:46.015Z,96462.63
2023-10-27T19:57:20.189Z,96472.25
2023-10-27T19:59:54.234Z,96472.45
2023-10-27T20:02:28.307Z,96470.15
2023-10-27T20:05:02.313Z,96468.35
2023-10-27T20:07:36.227Z,96458.89
2023-10-27T20:10:11.528Z,96452.48
2023-10-27T20:12:45.379Z,96453.06
2023-10-27T20:15:20.711Z,96449.58
2023-10-27T20:17:55.054Z,96449.08
2023-10-27T20:20:31.074Z,96449.49
2023-10-27T20:23:05.569Z,96444.63
2023-10-27T20:25:39.368Z,96444.83
2023-10-27T20:28:13.566Z,96445.00
2023-10-27T20:30:47.946Z,96446.35
2023-10-27T20:33:23.380Z,96444.76
2023-10-27T20:35:58.082Z,96446.21
2023-10-27T20:38:32.010Z,96446.72
2023-10-27T20:41:07.156Z,96452.11
2023-10-27T20:43:40.882Z,96462.09
2023-10-27T20:46:15.717Z,96457.00
2023-10-27T20:48:49.798Z,96453.39
2023-10-27T20:51:24.564Z,96451.90
2023-10-27T20:53:59.299Z,96450.71
2023-10-27T20:56:34.288Z,96455.66
2023-10-27T20:59:08.438Z,96450.28
2023-10-27T21:01:43.042Z,96451.02
2023-10-27T21:04:16.984Z,96449.29
2023-10-27T21:06:51.782Z,96448.69
2023-10-27T21:09:28.798Z,96447.08
2023-10-27T21:12:03.978Z,96443.93
2023-10-27T21:14:38.042Z,96442.49
2023-10-27T21:17:12.700Z,96445.34
2023-10-27T21:19:46.687Z,96449.09
2023-10-27T21:22:22.299Z,96448.88
2023-10-27T21:24:57.480Z,96451.14
2023-10-27T21:27:31.972Z,96450.81
2023-10-27T21:30:06.809Z,96449.48
2023-10-27T21:32:40.761Z,96454.31
2023-10-27T21:35:14.994Z,96451.89
2023-10-27T21:37:53.516Z,96448.77
2023-10-27T21:40:28.191Z,96445.91
2023-10-27T21:43:02.462Z,96442.71
2023-10-27T21:45:37.066Z,96442.92
2023-10-27T21:48:15.558Z,96447.84
2023-10-27T21:50:49.894Z,96449.39
2023-10-27T21:53:23.981Z,96451.73
2023-10-27T21:55:58.724Z,96455.06
2023-10-27T21:58:33.354Z,96453.23
2023-10-27T22:01:09.648Z,96454.30
2023-10-27T22:03:44.738Z,96451.16
2023-10-27T22:06:20.052Z,96455.45
2023-10-27T22:08:54.135Z,96458.55
2023-10-27T22:11:30.569Z,96459.55
2023-10-27T22:14:05.258Z,96454.88
2023-10-27T22:16:41.849Z,96455.11
2023-10-27T22:19:16.773Z,96455.40
2023-10-27T22:21:51.214Z,96454.73
2023-10-27T22:24:25.314Z,96453.73
2023-10-27T22:27:00.435Z,96452.91
2023-10-27T22:29:34.526Z,96455.02
2023-10-27T22:32:08.687Z,96456.52
2023-10-27T22:34:43.174Z,96456.45
2023-10-27T22:37:17.197Z,96460.86
2023-10-27T22:39:50.808Z,96459.44
2023-10-27T22:42:25.371Z,96462.70
2023-10-27T22:45:00.036Z,96461.40
2023-10-27T22:47:33.876Z,96455.69
2023-10-27T22:50:11.106Z,96460.11
2023-10-27T22:52:46.573Z,96459.85
2023-10-27T22:55:22.414Z,96456.07
2023-10-27T22:57:56.361Z,96454.13
2023-10-27T23:00:30.310Z,96452.52
2023-10-27T23:03:05.551Z,96451.38
2023-10-27T23:05:41.065Z,96451.31
2023-10-27T23:08:15.779Z,96451.66
2023-10-27T23:10:50.127Z,96451.41
2023-10-27T23:13:24.729Z,96454.23
2023-10-27T23:16:07.236Z,96454.88
2023-10-27T23:18:43.257Z,96455.20
2023-10-27T23:21:18.348Z,96453.20
2023-10-27T23:23:52.745Z,96457.27
2023-10-27T23:26:26.762Z,96460.80
2023-10-27T23:29:00.924Z,96461.80
2023-10-27T23:31:35.765Z,96460.30
2023-10-27T23:34:09.644Z,96462.02
2023-10-27T23:36:44.382Z,96459.75
2023-10-27T23:39:18.953Z,96457.86
2023-10-27T23:41:52.432Z,96456.84
2023-10-27T23:44:26.877Z,96459.25
2023-10-27T23:47:02.622Z,96460.92
2023-10-27T23:49:36.897Z,96464.91
2023-10-27T23:52:12.095Z,96466.36
2023-10-27T23:54:46.747Z,96463.03
2023-10-27T23:57:21.525Z,96464.21
2023-10-27T23:59:57.052Z,96466.52
